sensor_id;sensor_type;location;lat;lon;timestamp;P1;durP1;ratioP1;P2;durP2;ratioP2
6564;SDS011;3316;44.118;27.258;2022-07-29T00:02:07;3.97;;;2.97;;
6564;SDS011;3316;44.118;27.258;2022-07-29T00:04:36;3.40;;;3.05;;
6564;SDS011;3316;44.118;27.258;2022-07-29T00:07:02;4.35;;;3.22;;
6564;SDS011;3316;44.118;27.258;2022-07-29T00:09:28;3.95;;;3.08;;
6564;SDS011;3316;44.118;27.258;2022-07-29T00:11:54;4.03;;;2.97;;
6564;SDS011;3316;44.118;27.258;2022-07-29T00:14:23;5.03;;;3.17;;
6564;SDS011;3316;44.118;27.258;2022-07-29T00:16:48;4.28;;;3.88;;
6564;SDS011;3316;44.118;27.258;2022-07-29T00:19:14;5.43;;;3.25;;
6564;SDS011;3316;44.118;27.258;2022-07-29T00:21:39;4.57;;;3.15;;
6564;SDS011;3316;44.118;27.258;2022-07-29T00:24:05;3.90;;;3.50;;
6564;SDS011;3316;44.118;27.258;2022-07-29T00:26:30;4.93;;;3.35;;
6564;SDS011;3316;44.118;27.258;2022-07-29T00:29:01;6.03;;;3.47;;
6564;SDS011;3316;44.118;27.258;2022-07-29T00:31:28;6.07;;;3.38;;
6564;SDS011;3316;44.118;27.258;2022-07-29T00:33:53;3.90;;;3.45;;
6564;SDS011;3316;44.118;27.258;2022-07-29T00:36:19;5.15;;;3.22;;
6564;SDS011;3316;44.118;27.258;2022-07-29T00:38:46;6.72;;;3.45;;
6564;SDS011;3316;44.118;27.258;2022-07-29T00:41:15;7.18;;;3.35;;
6564;SDS011;3316;44.118;27.258;2022-07-29T00:43:42;5.43;;;3.63;;
6564;SDS011;3316;44.118;27.258;2022-07-29T00:46:08;4.50;;;3.72;;
6564;SDS011;3316;44.118;27.258;2022-07-29T00:48:33;4.30;;;3.60;;
6564;SDS011;3316;44.118;27.258;2022-07-29T00:50:59;5.40;;;3.30;;
6564;SDS011;3316;44.118;27.258;2022-07-29T00:53:26;4.10;;;3.53;;
6564;SDS011;3316;44.118;27.258;2022-07-29T00:55:55;6.32;;;3.50;;
6564;SDS011;3316;44.118;27.258;2022-07-29T00:58:22;5.88;;;3.72;;
6564;SDS011;3316;44.118;27.258;2022-07-29T01:00:48;4.78;;;3.42;;
6564;SDS011;3316;44.118;27.258;2022-07-29T01:03:14;6.53;;;3.50;;
6564;SDS011;3316;44.118;27.258;2022-07-29T01:05:39;3.58;;;3.28;;
6564;SDS011;3316;44.118;27.258;2022-07-29T01:08:06;5.60;;;3.45;;
6564;SDS011;3316;44.118;27.258;2022-07-29T01:10:33;3.85;;;3.45;;
6564;SDS011;3316;44.118;27.258;2022-07-29T01:13:02;4.80;;;3.60;;
6564;SDS011;3316;44.118;27.258;2022-07-29T01:15:28;5.10;;;3.45;;
6564;SDS011;3316;44.118;27.258;2022-07-29T01:18:01;3.80;;;3.45;;
6564;SDS011;3316;44.118;27.258;2022-07-29T01:28:52;4.30;;;3.70;;
6564;SDS011;3316;44.118;27.258;2022-07-29T01:31:20;4.05;;;3.38;;
6564;SDS011;3316;44.118;27.258;2022-07-29T01:33:58;6.53;;;3.67;;
6564;SDS011;3316;44.118;27.258;2022-07-29T01:36:31;4.07;;;3.60;;
6564;SDS011;3316;44.118;27.258;2022-07-29T01:39:33;5.10;;;4.05;;
6564;SDS011;3316;44.118;27.258;2022-07-29T01:41:56;4.00;;;3.40;;
6564;SDS011;3316;44.118;27.258;2022-07-29T01:44:30;4.90;;;3.53;;
6564;SDS011;3316;44.118;27.258;2022-07-29T01:47:01;4.50;;;3.50;;
6564;SDS011;3316;44.118;27.258;2022-07-29T01:49:35;4.47;;;4.05;;
6564;SDS011;3316;44.118;27.258;2022-07-29T01:52:08;5.43;;;3.65;;
6564;SDS011;3316;44.118;27.258;2022-07-29T01:54:45;5.72;;;3.95;;
6564;SDS011;3316;44.118;27.258;2022-07-29T01:57:16;4.93;;;3.65;;
6564;SDS011;3316;44.118;27.258;2022-07-29T01:59:46;6.10;;;4.03;;
6564;SDS011;3316;44.118;27.258;2022-07-29T02:02:16;5.80;;;3.67;;
6564;SDS011;3316;44.118;27.258;2022-07-29T02:04:44;6.95;;;4.32;;
6564;SDS011;3316;44.118;27.258;2022-07-29T02:07:13;5.20;;;4.10;;
6564;SDS011;3316;44.118;27.258;2022-07-29T02:09:43;7.43;;;5.22;;
6564;SDS011;3316;44.118;27.258;2022-07-29T02:12:10;7.78;;;5.68;;
6564;SDS011;3316;44.118;27.258;2022-07-29T02:14:39;11.95;;;6.15;;
6564;SDS011;3316;44.118;27.258;2022-07-29T02:17:08;8.82;;;6.45;;
6564;SDS011;3316;44.118;27.258;2022-07-29T02:19:37;8.13;;;5.30;;
6564;SDS011;3316;44.118;27.258;2022-07-29T02:22:04;9.25;;;5.95;;
6564;SDS011;3316;44.118;27.258;2022-07-29T02:24:31;10.65;;;6.70;;
6564;SDS011;3316;44.118;27.258;2022-07-29T02:26:58;6.57;;;5.88;;
6564;SDS011;3316;44.118;27.258;2022-07-29T02:29:26;11.70;;;6.72;;
6564;SDS011;3316;44.118;27.258;2022-07-29T02:31:53;8.10;;;5.80;;
6564;SDS011;3316;44.118;27.258;2022-07-29T02:34:20;6.65;;;6.03;;
6564;SDS011;3316;44.118;27.258;2022-07-29T02:36:46;9.48;;;5.78;;
6564;SDS011;3316;44.118;27.258;2022-07-29T02:39:14;12.55;;;6.60;;
6564;SDS011;3316;44.118;27.258;2022-07-29T02:41:44;13.52;;;6.15;;
6564;SDS011;3316;44.118;27.258;2022-07-29T02:44:16;14.40;;;6.60;;
6564;SDS011;3316;44.118;27.258;2022-07-29T02:46:53;9.50;;;5.65;;
6564;SDS011;3316;44.118;27.258;2022-07-29T02:51:54;11.02;;;4.68;;
6564;SDS011;3316;44.118;27.258;2022-07-29T02:57:14;7.93;;;4.85;;
6564;SDS011;3316;44.118;27.258;2022-07-29T02:59:48;8.48;;;4.75;;
6564;SDS011;3316;44.118;27.258;2022-07-29T03:02:16;9.85;;;5.03;;
6564;SDS011;3316;44.118;27.258;2022-07-29T03:04:42;9.50;;;4.70;;
6564;SDS011;3316;44.118;27.258;2022-07-29T03:07:10;5.45;;;4.32;;
6564;SDS011;3316;44.118;27.258;2022-07-29T03:09:38;11.32;;;4.57;;
6564;SDS011;3316;44.118;27.258;2022-07-29T03:12:06;7.60;;;4.45;;
6564;SDS011;3316;44.118;27.258;2022-07-29T03:14:32;8.23;;;4.63;;
6564;SDS011;3316;44.118;27.258;2022-07-29T03:16:58;17.38;;;5.78;;
6564;SDS011;3316;44.118;27.258;2022-07-29T03:19:25;20.40;;;5.07;;
6564;SDS011;3316;44.118;27.258;2022-07-29T03:21:51;7.35;;;4.80;;
6564;SDS011;3316;44.118;27.258;2022-07-29T03:24:25;10.63;;;5.22;;
6564;SDS011;3316;44.118;27.258;2022-07-29T03:26:55;7.15;;;4.78;;
6564;SDS011;3316;44.118;27.258;2022-07-29T03:29:21;6.07;;;4.85;;
6564;SDS011;3316;44.118;27.258;2022-07-29T03:31:46;13.85;;;5.95;;
6564;SDS011;3316;44.118;27.258;2022-07-29T03:34:12;8.30;;;5.05;;
6564;SDS011;3316;44.118;27.258;2022-07-29T03:36:37;10.48;;;5.03;;
6564;SDS011;3316;44.118;27.258;2022-07-29T03:39:03;14.23;;;5.18;;
6564;SDS011;3316;44.118;27.258;2022-07-29T03:41:30;12.85;;;5.38;;
6564;SDS011;3316;44.118;27.258;2022-07-29T03:43:58;9.20;;;5.13;;
6564;SDS011;3316;44.118;27.258;2022-07-29T03:46:25;9.45;;;4.90;;
6564;SDS011;3316;44.118;27.258;2022-07-29T03:48:55;6.13;;;4.93;;
6564;SDS011;3316;44.118;27.258;2022-07-29T03:51:25;8.70;;;5.25;;
6564;SDS011;3316;44.118;27.258;2022-07-29T03:53:51;10.35;;;5.80;;
6564;SDS011;3316;44.118;27.258;2022-07-29T03:56:17;9.27;;;5.70;;
6564;SDS011;3316;44.118;27.258;2022-07-29T03:58:46;7.10;;;5.28;;
6564;SDS011;3316;44.118;27.258;2022-07-29T04:01:13;10.27;;;5.07;;
6564;SDS011;3316;44.118;27.258;2022-07-29T04:03:40;8.98;;;5.40;;
6564;SDS011;3316;44.118;27.258;2022-07-29T04:06:06;9.23;;;5.57;;
6564;SDS011;3316;44.118;27.258;2022-07-29T04:08:32;15.70;;;5.68;;
6564;SDS011;3316;44.118;27.258;2022-07-29T04:10:59;10.23;;;5.28;;
6564;SDS011;3316;44.118;27.258;2022-07-29T04:13:25;7.68;;;5.40;;
6564;SDS011;3316;44.118;27.258;2022-07-29T04:15:51;11.88;;;4.80;;
6564;SDS011;3316;44.118;27.258;2022-07-29T04:18:16;9.00;;;6.07;;
6564;SDS011;3316;44.118;27.258;2022-07-29T04:20:41;6.50;;;5.38;;
6564;SDS011;3316;44.118;27.258;2022-07-29T04:23:07;11.70;;;5.47;;
6564;SDS011;3316;44.118;27.258;2022-07-29T04:25:32;10.10;;;5.10;;
6564;SDS011;3316;44.118;27.258;2022-07-29T04:27:58;10.77;;;5.50;;
6564;SDS011;3316;44.118;27.258;2022-07-29T04:30:26;13.20;;;5.40;;
6564;SDS011;3316;44.118;27.258;2022-07-29T04:32:52;11.00;;;5.43;;
6564;SDS011;3316;44.118;27.258;2022-07-29T04:35:20;15.85;;;5.18;;
6564;SDS011;3316;44.118;27.258;2022-07-29T04:37:46;8.48;;;5.53;;
6564;SDS011;3316;44.118;27.258;2022-07-29T04:40:12;14.38;;;5.80;;
6564;SDS011;3316;44.118;27.258;2022-07-29T04:42:38;10.90;;;5.68;;
6564;SDS011;3316;44.118;27.258;2022-07-29T04:45:04;16.30;;;6.30;;
6564;SDS011;3316;44.118;27.258;2022-07-29T04:47:29;8.90;;;5.40;;
6564;SDS011;3316;44.118;27.258;2022-07-29T04:49:55;12.95;;;5.68;;
6564;SDS011;3316;44.118;27.258;2022-07-29T04:52:21;5.78;;;5.20;;
6564;SDS011;3316;44.118;27.258;2022-07-29T04:54:47;21.35;;;5.85;;
6564;SDS011;3316;44.118;27.258;2022-07-29T04:57:13;13.98;;;5.70;;
6564;SDS011;3316;44.118;27.258;2022-07-29T04:59:38;7.90;;;5.15;;
6564;SDS011;3316;44.118;27.258;2022-07-29T05:02:04;8.85;;;5.38;;
6564;SDS011;3316;44.118;27.258;2022-07-29T05:04:29;12.95;;;5.45;;
6564;SDS011;3316;44.118;27.258;2022-07-29T05:06:55;8.02;;;4.85;;
6564;SDS011;3316;44.118;27.258;2022-07-29T05:09:20;8.98;;;4.75;;
6564;SDS011;3316;44.118;27.258;2022-07-29T05:11:45;7.78;;;4.75;;
6564;SDS011;3316;44.118;27.258;2022-07-29T05:14:11;6.85;;;4.70;;
6564;SDS011;3316;44.118;27.258;2022-07-29T05:16:36;8.52;;;5.18;;
6564;SDS011;3316;44.118;27.258;2022-07-29T05:19:04;7.03;;;5.07;;
6564;SDS011;3316;44.118;27.258;2022-07-29T05:21:29;11.13;;;6.40;;
6564;SDS011;3316;44.118;27.258;2022-07-29T05:23:54;10.95;;;5.85;;
6564;SDS011;3316;44.118;27.258;2022-07-29T05:26:20;8.98;;;6.03;;
6564;SDS011;3316;44.118;27.258;2022-07-29T05:28:45;7.75;;;6.22;;
6564;SDS011;3316;44.118;27.258;2022-07-29T05:31:11;8.73;;;5.82;;
6564;SDS011;3316;44.118;27.258;2022-07-29T05:33:36;8.93;;;7.03;;
6564;SDS011;3316;44.118;27.258;2022-07-29T05:36:05;8.00;;;5.80;;
6564;SDS011;3316;44.118;27.258;2022-07-29T05:38:31;14.40;;;6.18;;
6564;SDS011;3316;44.118;27.258;2022-07-29T05:40:58;12.57;;;5.95;;
6564;SDS011;3316;44.118;27.258;2022-07-29T05:43:24;11.45;;;6.28;;
6564;SDS011;3316;44.118;27.258;2022-07-29T05:45:50;8.00;;;5.60;;
6564;SDS011;3316;44.118;27.258;2022-07-29T05:48:15;7.63;;;5.00;;
6564;SDS011;3316;44.118;27.258;2022-07-29T05:50:41;10.63;;;5.40;;
6564;SDS011;3316;44.118;27.258;2022-07-29T05:53:06;8.95;;;5.47;;
6564;SDS011;3316;44.118;27.258;2022-07-29T05:55:31;13.88;;;4.95;;
6564;SDS011;3316;44.118;27.258;2022-07-29T05:57:57;8.27;;;5.45;;
6564;SDS011;3316;44.118;27.258;2022-07-29T06:00:22;8.43;;;4.85;;
6564;SDS011;3316;44.118;27.258;2022-07-29T06:02:48;8.43;;;5.15;;
6564;SDS011;3316;44.118;27.258;2022-07-29T06:05:13;7.50;;;4.75;;
6564;SDS011;3316;44.118;27.258;2022-07-29T06:07:40;7.15;;;4.38;;
6564;SDS011;3316;44.118;27.258;2022-07-29T06:10:05;7.75;;;4.18;;
6564;SDS011;3316;44.118;27.258;2022-07-29T06:12:31;8.35;;;4.97;;
6564;SDS011;3316;44.118;27.258;2022-07-29T06:14:57;9.30;;;4.40;;
6564;SDS011;3316;44.118;27.258;2022-07-29T06:17:22;8.98;;;3.95;;
6564;SDS011;3316;44.118;27.258;2022-07-29T06:19:48;7.07;;;4.97;;
6564;SDS011;3316;44.118;27.258;2022-07-29T06:22:15;7.53;;;4.20;;
6564;SDS011;3316;44.118;27.258;2022-07-29T06:24:41;15.63;;;4.80;;
6564;SDS011;3316;44.118;27.258;2022-07-29T06:27:09;6.10;;;4.70;;
6564;SDS011;3316;44.118;27.258;2022-07-29T06:29:37;8.73;;;4.90;;
6564;SDS011;3316;44.118;27.258;2022-07-29T06:32:03;8.73;;;4.50;;
6564;SDS011;3316;44.118;27.258;2022-07-29T06:34:28;6.43;;;4.88;;
6564;SDS011;3316;44.118;27.258;2022-07-29T06:36:54;17.70;;;5.13;;
6564;SDS011;3316;44.118;27.258;2022-07-29T06:39:19;15.77;;;6.93;;
6564;SDS011;3316;44.118;27.258;2022-07-29T06:41:48;8.25;;;5.40;;
6564;SDS011;3316;44.118;27.258;2022-07-29T06:44:15;8.35;;;4.90;;
6564;SDS011;3316;44.118;27.258;2022-07-29T06:46:41;10.68;;;5.38;;
6564;SDS011;3316;44.118;27.258;2022-07-29T06:49:07;7.38;;;5.13;;
6564;SDS011;3316;44.118;27.258;2022-07-29T06:51:33;22.75;;;5.47;;
6564;SDS011;3316;44.118;27.258;2022-07-29T06:53:59;7.63;;;4.78;;
6564;SDS011;3316;44.118;27.258;2022-07-29T06:56:25;11.85;;;5.97;;
6564;SDS011;3316;44.118;27.258;2022-07-29T06:58:51;12.57;;;6.32;;
6564;SDS011;3316;44.118;27.258;2022-07-29T07:01:17;16.98;;;5.90;;
6564;SDS011;3316;44.118;27.258;2022-07-29T07:03:42;12.68;;;6.32;;
6564;SDS011;3316;44.118;27.258;2022-07-29T07:06:08;14.45;;;6.22;;
6564;SDS011;3316;44.118;27.258;2022-07-29T07:08:33;12.82;;;6.30;;
6564;SDS011;3316;44.118;27.258;2022-07-29T07:10:59;20.38;;;7.60;;
6564;SDS011;3316;44.118;27.258;2022-07-29T07:13:24;21.17;;;7.25;;
6564;SDS011;3316;44.118;27.258;2022-07-29T07:15:50;10.50;;;7.45;;
6564;SDS011;3316;44.118;27.258;2022-07-29T07:18:17;18.08;;;7.45;;
6564;SDS011;3316;44.118;27.258;2022-07-29T07:20:43;13.45;;;7.00;;
6564;SDS011;3316;44.118;27.258;2022-07-29T07:23:09;11.13;;;6.25;;
6564;SDS011;3316;44.118;27.258;2022-07-29T07:25:35;12.30;;;6.75;;
6564;SDS011;3316;44.118;27.258;2022-07-29T07:28:01;14.13;;;6.53;;
6564;SDS011;3316;44.118;27.258;2022-07-29T07:30:27;9.48;;;7.22;;
6564;SDS011;3316;44.118;27.258;2022-07-29T07:32:53;15.77;;;7.15;;
6564;SDS011;3316;44.118;27.258;2022-07-29T07:35:18;10.68;;;6.55;;
6564;SDS011;3316;44.118;27.258;2022-07-29T07:37:44;10.40;;;6.43;;
6564;SDS011;3316;44.118;27.258;2022-07-29T07:40:11;16.65;;;6.72;;
6564;SDS011;3316;44.118;27.258;2022-07-29T07:42:37;14.77;;;6.60;;
6564;SDS011;3316;44.118;27.258;2022-07-29T07:45:03;11.10;;;6.63;;
6564;SDS011;3316;44.118;27.258;2022-07-29T07:47:30;14.38;;;7.00;;
6564;SDS011;3316;44.118;27.258;2022-07-29T07:49:56;12.35;;;6.75;;
6564;SDS011;3316;44.118;27.258;2022-07-29T07:52:22;11.75;;;6.80;;
6564;SDS011;3316;44.118;27.258;2022-07-29T07:54:47;8.60;;;6.45;;
6564;SDS011;3316;44.118;27.258;2022-07-29T07:57:13;25.50;;;7.45;;
6564;SDS011;3316;44.118;27.258;2022-07-29T07:59:40;8.95;;;6.72;;
6564;SDS011;3316;44.118;27.258;2022-07-29T08:02:06;8.05;;;6.20;;
6564;SDS011;3316;44.118;27.258;2022-07-29T08:04:32;8.70;;;6.68;;
6564;SDS011;3316;44.118;27.258;2022-07-29T08:06:58;13.90;;;5.82;;
6564;SDS011;3316;44.118;27.258;2022-07-29T08:09:24;10.38;;;6.00;;
6564;SDS011;3316;44.118;27.258;2022-07-29T08:11:51;8.75;;;5.90;;
6564;SDS011;3316;44.118;27.258;2022-07-29T08:14:17;12.60;;;6.25;;
6564;SDS011;3316;44.118;27.258;2022-07-29T08:16:43;12.40;;;7.53;;
6564;SDS011;3316;44.118;27.258;2022-07-29T08:19:09;10.23;;;6.20;;
6564;SDS011;3316;44.118;27.258;2022-07-29T08:21:35;10.90;;;6.22;;
6564;SDS011;3316;44.118;27.258;2022-07-29T08:24:01;9.18;;;6.60;;
6564;SDS011;3316;44.118;27.258;2022-07-29T08:26:45;7.43;;;5.30;;
6564;SDS011;3316;44.118;27.258;2022-07-29T08:29:10;9.45;;;5.75;;
6564;SDS011;3316;44.118;27.258;2022-07-29T08:31:36;10.65;;;5.85;;
6564;SDS011;3316;44.118;27.258;2022-07-29T08:34:03;7.93;;;6.13;;
6564;SDS011;3316;44.118;27.258;2022-07-29T08:36:29;7.18;;;5.15;;
6564;SDS011;3316;44.118;27.258;2022-07-29T08:38:54;8.88;;;5.80;;
6564;SDS011;3316;44.118;27.258;2022-07-29T08:41:20;5.90;;;5.30;;
6564;SDS011;3316;44.118;27.258;2022-07-29T08:43:47;7.03;;;5.80;;
6564;SDS011;3316;44.118;27.258;2022-07-29T08:46:13;6.20;;;5.60;;
6564;SDS011;3316;44.118;27.258;2022-07-29T08:48:39;9.63;;;5.95;;
6564;SDS011;3316;44.118;27.258;2022-07-29T08:51:06;8.02;;;5.43;;
6564;SDS011;3316;44.118;27.258;2022-07-29T08:53:32;8.40;;;5.60;;
6564;SDS011;3316;44.118;27.258;2022-07-29T08:55:58;7.88;;;5.82;;
6564;SDS011;3316;44.118;27.258;2022-07-29T08:58:25;8.45;;;6.35;;
6564;SDS011;3316;44.118;27.258;2022-07-29T09:00:53;18.08;;;10.25;;
6564;SDS011;3316;44.118;27.258;2022-07-29T09:03:22;24.75;;;13.15;;
6564;SDS011;3316;44.118;27.258;2022-07-29T09:05:50;9.77;;;6.15;;
6564;SDS011;3316;44.118;27.258;2022-07-29T09:08:17;19.45;;;6.03;;
6564;SDS011;3316;44.118;27.258;2022-07-29T09:10:43;9.68;;;5.75;;
6564;SDS011;3316;44.118;27.258;2022-07-29T09:13:09;9.52;;;5.75;;
6564;SDS011;3316;44.118;27.258;2022-07-29T09:15:35;29.17;;;11.38;;
6564;SDS011;3316;44.118;27.258;2022-07-29T09:18:00;13.27;;;5.80;;
6564;SDS011;3316;44.118;27.258;2022-07-29T09:20:27;8.52;;;5.97;;
6564;SDS011;3316;44.118;27.258;2022-07-29T09:23:13;7.07;;;5.88;;
6564;SDS011;3316;44.118;27.258;2022-07-29T09:25:40;6.85;;;5.57;;
6564;SDS011;3316;44.118;27.258;2022-07-29T09:30:41;9.52;;;6.63;;
6564;SDS011;3316;44.118;27.258;2022-07-29T09:33:16;7.30;;;5.07;;
6564;SDS011;3316;44.118;27.258;2022-07-29T09:35:41;10.48;;;5.93;;
6564;SDS011;3316;44.118;27.258;2022-07-29T09:38:13;5.82;;;5.05;;
6564;SDS011;3316;44.118;27.258;2022-07-29T09:40:39;9.00;;;6.57;;
6564;SDS011;3316;44.118;27.258;2022-07-29T09:43:11;9.70;;;4.88;;
6564;SDS011;3316;44.118;27.258;2022-07-29T09:45:38;8.52;;;5.03;;
6564;SDS011;3316;44.118;27.258;2022-07-29T09:48:17;7.35;;;5.50;;
6564;SDS011;3316;44.118;27.258;2022-07-29T09:50:45;7.20;;;5.50;;
6564;SDS011;3316;44.118;27.258;2022-07-29T09:53:29;7.20;;;4.78;;
6564;SDS011;3316;44.118;27.258;2022-07-29T09:55:56;7.88;;;5.45;;
6564;SDS011;3316;44.118;27.258;2022-07-29T09:58:22;13.65;;;5.20;;
6564;SDS011;3316;44.118;27.258;2022-07-29T10:00:48;9.45;;;5.30;;
6564;SDS011;3316;44.118;27.258;2022-07-29T10:03:15;6.50;;;4.75;;
6564;SDS011;3316;44.118;27.258;2022-07-29T10:05:42;6.50;;;4.38;;
6564;SDS011;3316;44.118;27.258;2022-07-29T10:08:09;13.43;;;5.05;;
6564;SDS011;3316;44.118;27.258;2022-07-29T10:10:36;8.32;;;5.22;;
6564;SDS011;3316;44.118;27.258;2022-07-29T10:13:04;6.00;;;4.70;;
6564;SDS011;3316;44.118;27.258;2022-07-29T10:15:33;8.02;;;4.40;;
6564;SDS011;3316;44.118;27.258;2022-07-29T10:18:04;8.20;;;5.38;;
6564;SDS011;3316;44.118;27.258;2022-07-29T10:20:30;9.90;;;4.75;;
6564;SDS011;3316;44.118;27.258;2022-07-29T10:22:56;4.80;;;4.13;;
6564;SDS011;3316;44.118;27.258;2022-07-29T10:25:23;6.65;;;4.53;;
6564;SDS011;3316;44.118;27.258;2022-07-29T10:27:49;5.80;;;4.50;;
6564;SDS011;3316;44.118;27.258;2022-07-29T10:30:20;7.75;;;4.68;;
6564;SDS011;3316;44.118;27.258;2022-07-29T10:40:50;6.57;;;4.53;;
6564;SDS011;3316;44.118;27.258;2022-07-29T10:43:36;5.68;;;4.97;;
6564;SDS011;3316;44.118;27.258;2022-07-29T10:46:06;5.38;;;4.43;;
6564;SDS011;3316;44.118;27.258;2022-07-29T10:48:32;5.30;;;4.00;;
6564;SDS011;3316;44.118;27.258;2022-07-29T10:50:58;4.30;;;3.90;;
6564;SDS011;3316;44.118;27.258;2022-07-29T10:53:45;4.25;;;3.83;;
6564;SDS011;3316;44.118;27.258;2022-07-29T10:56:27;7.20;;;4.13;;
6564;SDS011;3316;44.118;27.258;2022-07-29T11:01:52;7.50;;;4.15;;
6564;SDS011;3316;44.118;27.258;2022-07-29T11:05:04;8.30;;;5.10;;
6564;SDS011;3316;44.118;27.258;2022-07-29T11:07:10;5.05;;;4.43;;
6564;SDS011;3316;44.118;27.258;2022-07-29T11:09:37;4.20;;;3.80;;
6564;SDS011;3316;44.118;27.258;2022-07-29T11:12:04;6.07;;;4.13;;
6564;SDS011;3316;44.118;27.258;2022-07-29T11:14:55;4.60;;;3.67;;
6564;SDS011;3316;44.118;27.258;2022-07-29T11:17:23;6.78;;;4.63;;
6564;SDS011;3316;44.118;27.258;2022-07-29T11:19:49;5.65;;;3.75;;
6564;SDS011;3316;44.118;27.258;2022-07-29T11:22:33;4.97;;;4.15;;
6564;SDS011;3316;44.118;27.258;2022-07-29T11:25:18;3.97;;;3.60;;
6564;SDS011;3316;44.118;27.258;2022-07-29T11:27:44;16.23;;;5.57;;
6564;SDS011;3316;44.118;27.258;2022-07-29T11:30:10;5.55;;;4.22;;
6564;SDS011;3316;44.118;27.258;2022-07-29T11:32:40;5.20;;;3.80;;
6564;SDS011;3316;44.118;27.258;2022-07-29T11:35:16;5.20;;;3.70;;
6564;SDS011;3316;44.118;27.258;2022-07-29T11:44:00;5.82;;;3.70;;
6564;SDS011;3316;44.118;27.258;2022-07-29T11:49:24;4.30;;;3.65;;
6564;SDS011;3316;44.118;27.258;2022-07-29T11:51:51;4.60;;;3.60;;
6564;SDS011;3316;44.118;27.258;2022-07-29T11:54:21;4.65;;;4.20;;
6564;SDS011;3316;44.118;27.258;2022-07-29T11:56:51;5.35;;;4.13;;
6564;SDS011;3316;44.118;27.258;2022-07-29T11:59:17;5.80;;;4.00;;
6564;SDS011;3316;44.118;27.258;2022-07-29T12:04:23;4.63;;;3.65;;
6564;SDS011;3316;44.118;27.258;2022-07-29T12:06:52;5.75;;;3.97;;
6564;SDS011;3316;44.118;27.258;2022-07-29T12:09:19;4.90;;;4.13;;
6564;SDS011;3316;44.118;27.258;2022-07-29T12:11:46;7.70;;;4.10;;
6564;SDS011;3316;44.118;27.258;2022-07-29T12:14:27;7.30;;;4.45;;
6564;SDS011;3316;44.118;27.258;2022-07-29T12:16:54;5.78;;;5.03;;
6564;SDS011;3316;44.118;27.258;2022-07-29T12:19:20;7.95;;;5.30;;
6564;SDS011;3316;44.118;27.258;2022-07-29T12:21:55;7.40;;;4.07;;
6564;SDS011;3316;44.118;27.258;2022-07-29T12:24:23;8.50;;;3.97;;
6564;SDS011;3316;44.118;27.258;2022-07-29T12:26:53;4.32;;;3.92;;
6564;SDS011;3316;44.118;27.258;2022-07-29T12:29:22;5.93;;;3.97;;
6564;SDS011;3316;44.118;27.258;2022-07-29T12:31:51;7.75;;;3.80;;
6564;SDS011;3316;44.118;27.258;2022-07-29T12:34:19;4.68;;;3.83;;
6564;SDS011;3316;44.118;27.258;2022-07-29T12:36:47;5.80;;;5.22;;
6564;SDS011;3316;44.118;27.258;2022-07-29T12:39:14;5.10;;;4.55;;
6564;SDS011;3316;44.118;27.258;2022-07-29T12:41:42;7.72;;;3.78;;
6564;SDS011;3316;44.118;27.258;2022-07-29T12:44:09;6.13;;;4.05;;
6564;SDS011;3316;44.118;27.258;2022-07-29T12:46:35;7.88;;;3.63;;
6564;SDS011;3316;44.118;27.258;2022-07-29T12:49:01;8.75;;;5.38;;
6564;SDS011;3316;44.118;27.258;2022-07-29T12:51:31;7.45;;;4.25;;
6564;SDS011;3316;44.118;27.258;2022-07-29T12:54:09;5.22;;;4.15;;
6564;SDS011;3316;44.118;27.258;2022-07-29T12:56:38;5.70;;;3.95;;
6564;SDS011;3316;44.118;27.258;2022-07-29T13:01:59;5.65;;;3.80;;
6564;SDS011;3316;44.118;27.258;2022-07-29T13:04:26;5.63;;;4.22;;
6564;SDS011;3316;44.118;27.258;2022-07-29T13:07:13;8.95;;;3.47;;
6564;SDS011;3316;44.118;27.258;2022-07-29T13:09:48;5.63;;;4.07;;
6564;SDS011;3316;44.118;27.258;2022-07-29T13:12:14;8.70;;;5.00;;
6564;SDS011;3316;44.118;27.258;2022-07-29T13:14:41;9.07;;;5.45;;
6564;SDS011;3316;44.118;27.258;2022-07-29T13:19:48;10.70;;;6.25;;
6564;SDS011;3316;44.118;27.258;2022-07-29T13:22:16;6.30;;;4.30;;
6564;SDS011;3316;44.118;27.258;2022-07-29T13:27:19;7.38;;;4.40;;
6564;SDS011;3316;44.118;27.258;2022-07-29T13:29:46;8.35;;;4.13;;
6564;SDS011;3316;44.118;27.258;2022-07-29T13:32:13;6.75;;;4.20;;
6564;SDS011;3316;44.118;27.258;2022-07-29T13:34:39;6.10;;;4.07;;
6564;SDS011;3316;44.118;27.258;2022-07-29T13:37:06;6.68;;;4.15;;
6564;SDS011;3316;44.118;27.258;2022-07-29T13:39:31;6.22;;;4.45;;
6564;SDS011;3316;44.118;27.258;2022-07-29T13:41:57;21.33;;;5.38;;
6564;SDS011;3316;44.118;27.258;2022-07-29T13:44:22;13.80;;;5.32;;
6564;SDS011;3316;44.118;27.258;2022-07-29T13:46:48;7.38;;;4.55;;
6564;SDS011;3316;44.118;27.258;2022-07-29T13:49:13;4.60;;;3.90;;
6564;SDS011;3316;44.118;27.258;2022-07-29T13:51:39;8.57;;;3.90;;
6564;SDS011;3316;44.118;27.258;2022-07-29T13:54:05;4.45;;;3.90;;
6564;SDS011;3316;44.118;27.258;2022-07-29T13:56:30;8.82;;;4.10;;
6564;SDS011;3316;44.118;27.258;2022-07-29T13:58:56;5.38;;;4.47;;
6564;SDS011;3316;44.118;27.258;2022-07-29T14:01:22;10.73;;;4.47;;
6564;SDS011;3316;44.118;27.258;2022-07-29T14:03:48;6.30;;;4.38;;
6564;SDS011;3316;44.118;27.258;2022-07-29T14:06:13;16.00;;;5.03;;
6564;SDS011;3316;44.118;27.258;2022-07-29T14:08:38;6.35;;;3.95;;
6564;SDS011;3316;44.118;27.258;2022-07-29T14:11:04;6.28;;;4.53;;
6564;SDS011;3316;44.118;27.258;2022-07-29T14:13:30;11.13;;;5.28;;
6564;SDS011;3316;44.118;27.258;2022-07-29T14:15:56;6.88;;;4.10;;
6564;SDS011;3316;44.118;27.258;2022-07-29T14:18:21;4.78;;;4.03;;
6564;SDS011;3316;44.118;27.258;2022-07-29T14:20:47;10.07;;;4.70;;
6564;SDS011;3316;44.118;27.258;2022-07-29T14:23:13;5.32;;;4.15;;
6564;SDS011;3316;44.118;27.258;2022-07-29T14:25:38;5.18;;;4.40;;
6564;SDS011;3316;44.118;27.258;2022-07-29T14:28:04;4.88;;;4.35;;
6564;SDS011;3316;44.118;27.258;2022-07-29T14:30:29;6.60;;;4.85;;
6564;SDS011;3316;44.118;27.258;2022-07-29T14:32:55;8.45;;;4.07;;
6564;SDS011;3316;44.118;27.258;2022-07-29T14:35:20;10.05;;;4.90;;
6564;SDS011;3316;44.118;27.258;2022-07-29T14:37:45;9.50;;;4.93;;
6564;SDS011;3316;44.118;27.258;2022-07-29T14:40:11;12.60;;;5.85;;
6564;SDS011;3316;44.118;27.258;2022-07-29T14:42:37;19.10;;;6.20;;
6564;SDS011;3316;44.118;27.258;2022-07-29T14:45:04;19.10;;;6.03;;
6564;SDS011;3316;44.118;27.258;2022-07-29T14:47:30;13.07;;;5.18;;
6564;SDS011;3316;44.118;27.258;2022-07-29T14:49:56;9.82;;;5.22;;
6564;SDS011;3316;44.118;27.258;2022-07-29T14:52:21;12.93;;;5.68;;
6564;SDS011;3316;44.118;27.258;2022-07-29T14:54:47;10.95;;;5.13;;
6564;SDS011;3316;44.118;27.258;2022-07-29T14:57:12;7.78;;;4.90;;
6564;SDS011;3316;44.118;27.258;2022-07-29T14:59:37;8.60;;;5.20;;
6564;SDS011;3316;44.118;27.258;2022-07-29T15:02:03;6.68;;;5.05;;
6564;SDS011;3316;44.118;27.258;2022-07-29T15:04:28;6.63;;;4.88;;
6564;SDS011;3316;44.118;27.258;2022-07-29T15:06:54;8.10;;;4.88;;
6564;SDS011;3316;44.118;27.258;2022-07-29T15:09:19;10.15;;;5.40;;
6564;SDS011;3316;44.118;27.258;2022-07-29T15:11:45;9.50;;;4.70;;
6564;SDS011;3316;44.118;27.258;2022-07-29T15:14:10;9.10;;;4.68;;
6564;SDS011;3316;44.118;27.258;2022-07-29T15:16:36;6.40;;;4.57;;
6564;SDS011;3316;44.118;27.258;2022-07-29T15:19:03;16.17;;;5.40;;
6564;SDS011;3316;44.118;27.258;2022-07-29T15:21:29;11.68;;;5.40;;
6564;SDS011;3316;44.118;27.258;2022-07-29T15:23:54;7.82;;;4.35;;
6564;SDS011;3316;44.118;27.258;2022-07-29T15:26:20;7.30;;;4.75;;
6564;SDS011;3316;44.118;27.258;2022-07-29T15:28:46;9.50;;;4.60;;
6564;SDS011;3316;44.118;27.258;2022-07-29T15:31:11;7.85;;;4.38;;
6564;SDS011;3316;44.118;27.258;2022-07-29T15:33:37;6.00;;;4.55;;
6564;SDS011;3316;44.118;27.258;2022-07-29T15:36:02;10.15;;;4.90;;
6564;SDS011;3316;44.118;27.258;2022-07-29T15:38:29;10.35;;;4.70;;
6564;SDS011;3316;44.118;27.258;2022-07-29T15:40:55;7.90;;;4.70;;
6564;SDS011;3316;44.118;27.258;2022-07-29T15:43:21;5.68;;;4.13;;
6564;SDS011;3316;44.118;27.258;2022-07-29T15:45:47;7.65;;;4.40;;
6564;SDS011;3316;44.118;27.258;2022-07-29T15:48:31;9.02;;;4.38;;